• Join FlightAware (Why Join?)
  • Login
  • US Flag 
08:41AM EDT


 

Airport Tracker/Info


-or-


 

Live Flight TrackerFlight Track Log ✈ CSC8978 ✈ 02-Mar-2014 ✈ RCSS / TSA - ZUUU / CTU

Flight Track Log - Related Links

Times and Time Zones

All times are in EST time to prevent confusion due to time zone crossing. See the CSC8978 flight status page for this flight to view local times or setup timezone preferences in your user account.

Time Position Orientation Groundspeed Altitude Reporting Facility
EST Latitude Longitude Course Direction KTS MPH feet Rate Location/Type
04:52AM 25.2417 121.1115 293° West  Level Estimated
04:53AM 25.2819 121.0080 293° West  Level Estimated
04:54AM 25.3221 120.9045 293° West  Level Estimated
04:55AM 25.3622 120.8009 293° West  Level Estimated
04:56AM 25.4022 120.6973 293° West  Level Estimated
04:57AM 25.4421 120.5936 293° West  Level Estimated
04:58AM 25.4820 120.4898 293° West  Level Estimated
04:59AM 25.5218 120.3859 293° West  Level Estimated
05:00AM 25.5615 120.2820 293° West  Level Estimated
05:01AM 25.6011 120.1780 293° West  Level Estimated
05:02AM 25.6407 120.0740 293° West  Level Estimated
05:03AM 25.6802 119.9698 293° West  Level Estimated
05:04AM 25.7196 119.8656 293° West  Level Estimated
05:05AM 25.7589 119.7614 293° West  Level Estimated
05:06AM 25.7982 119.6570 293° West  Level Estimated
05:07AM 25.8374 119.5526 293° West  Level Estimated
05:08AM 25.8765 119.4482 293° West  Level Estimated
05:09AM 25.9156 119.3436 293° West  Level Estimated
05:10AM 25.9546 119.2390 293° West  Level Estimated
05:11AM 25.9935 119.1343 292° West  Level Estimated
05:12AM 26.0323 119.0296 292° West  Level Estimated
05:13AM 26.0710 118.9248 292° West  Level Estimated
05:14AM 26.1097 118.8199 292° West  Level Estimated
05:15AM 26.1483 118.7149 292° West  Level Estimated
05:16AM 26.1868 118.6099 292° West  Level Estimated
05:17AM 26.2253 118.5048 292° West  Level Estimated
05:18AM 26.2636 118.3996 292° West  Level Estimated
05:19AM 26.3019 118.2944 292° West  Level Estimated
05:20AM 26.3401 118.1891 292° West  Level Estimated
05:20AM 23.1746 118.9144 238° Southwest 415 478 28,000  Level FlightAware ADS-B
05:21AM 23.1325 118.8427 238° Southwest 415 478 28,000  Level FlightAware ADS-B
05:22AM 23.0907 118.7716 238° Southwest 415 478 28,000  Level FlightAware ADS-B
05:22AM 23.0526 118.7069 237° Southwest 416 479 28,000  Level FlightAware ADS-B
05:23AM 23.0137 118.6411 238° Southwest 416 479 28,000 60 Level FlightAware ADS-B
05:41AM 23.0158 116.6925 267° West 396 456 30,100 60 Climbing FlightAware ADS-B
05:43AM 23.0047 116.4554 267° West 397 457 30,100  Level FlightAware ADS-B
05:44AM 22.9989 116.3454 267° West 398 458 30,100  Level FlightAware ADS-B
05:45AM 22.9926 116.2846 267° West 398 458 30,100  Level FlightAware ADS-B
05:45AM 22.9849 116.2109 264° West 397 457 30,100  Level FlightAware ADS-B
05:46AM 22.9771 116.1348 264° West 397 457 30,100  Level FlightAware ADS-B
05:47AM 22.9676 116.0444 264° West 397 457 30,100  Level FlightAware ADS-B
05:47AM 22.9595 115.9668 264° West 397 457 30,100  Level FlightAware ADS-B
05:48AM 22.9513 115.8892 263° West 397 457 30,100  Level FlightAware ADS-B
05:49AM 22.9445 115.8234 264° West 397 457 30,100  Level FlightAware ADS-B
05:49AM 22.9371 115.7484 264° West 397 457 30,100  Level FlightAware ADS-B
05:50AM 22.9311 115.6878 264° West 397 457 30,100  Level FlightAware ADS-B
05:50AM 22.9231 115.6090 264° West 397 457 30,100  Level FlightAware ADS-B
05:51AM 22.9148 115.5279 264° West 396 456 30,100  Level FlightAware ADS-B
05:52AM 22.9078 115.4587 264° West 395 455 30,100  Level FlightAware ADS-B
05:52AM 22.8995 115.3772 264° West 396 456 30,100  Level FlightAware ADS-B
05:53AM 22.8911 115.2962 264° West 396 456 30,100  Level FlightAware ADS-B
05:54AM 22.8830 115.2172 264° West 397 457 30,100  Level FlightAware ADS-B
05:54AM 22.8744 115.1347 264° West 399 459 30,100  Level FlightAware ADS-B
05:55AM 22.8663 115.0574 264° West 397 457 30,100  Level FlightAware ADS-B
05:56AM 22.8587 114.9845 264° West 397 457 30,100  Level FlightAware ADS-B
05:56AM 22.8493 114.8964 263° West 397 457 30,100  Level FlightAware ADS-B
05:57AM 22.8424 114.8311 264° West 396 456 30,100  Level FlightAware ADS-B
06:00AM 22.8074 114.4872 263° West 397 457 30,100  Level FlightAware ADS-B
06:01AM 23.0831 114.5283 311° West  Level Estimated
06:02AM 23.1495 114.4444 311° West  Level Estimated
06:03AM 22.9905 114.2646 312° West  Level Estimated
06:04AM 23.0583 114.1820 312° West  Level Estimated
06:05AM 23.1260 114.0993 312° West  Level Estimated
06:06AM 23.1936 114.0165 312° West  Level Estimated
06:07AM 23.2612 113.9337 312° West  Level Estimated
06:08AM 23.3288 113.8507 312° West  Level Estimated
06:09AM 23.3963 113.7677 312° West  Level Estimated
06:10AM 23.4638 113.6846 312° West  Level Estimated
06:11AM 23.5313 113.6014 311° West  Level Estimated
06:12AM 23.5987 113.5181 311° West  Level Estimated
06:13AM 23.6660 113.4348 311° West  Level Estimated
06:14AM 23.7333 113.3513 311° West  Level Estimated
06:15AM 23.8006 113.2678 311° West  Level Estimated
06:16AM 23.8678 113.1842 311° West  Level Estimated
06:17AM 23.9350 113.1005 311° West  Level Estimated
06:18AM 24.0021 113.0167 311° West  Level Estimated
06:19AM 24.0692 112.9328 311° West  Level Estimated
06:20AM 24.1362 112.8488 311° West  Level Estimated
06:21AM 24.2032 112.7648 311° West  Level Estimated
06:22AM 24.2702 112.6806 311° West  Level Estimated
06:23AM 24.3371 112.5964 311° West  Level Estimated
06:24AM 24.4039 112.5120 311° West  Level Estimated
06:25AM 24.4707 112.4276 311° West  Level Estimated
06:26AM 24.5375 112.3431 311° West  Level Estimated
06:27AM 24.6042 112.2585 311° West  Level Estimated
06:28AM 24.6709 112.1739 311° West  Level Estimated
06:29AM 24.7375 112.0891 311° West  Level Estimated
06:30AM 24.8040 112.0042 311° West  Level Estimated
06:31AM 24.8706 111.9193 311° West  Level Estimated
06:32AM 24.9370 111.8342 311° West  Level Estimated
06:33AM 25.0035 111.7491 311° West  Level Estimated
06:34AM 25.0698 111.6638 311° West  Level Estimated
06:35AM 25.1362 111.5785 311° West  Level Estimated
06:36AM 25.2024 111.4931 311° West  Level Estimated
06:37AM 25.2687 111.4076 311° West  Level Estimated
06:38AM 25.3348 111.3220 311° West  Level Estimated
06:39AM 25.4010 111.2363 311° West  Level Estimated
06:40AM 25.4671 111.1505 310° West  Level Estimated
06:41AM 25.5331 111.0646 310° West  Level Estimated
06:42AM 25.5991 110.9786 310° West  Level Estimated
06:43AM 25.6650 110.8926 310° West  Level Estimated
06:44AM 25.7309 110.8064 310° West  Level Estimated
06:45AM 25.7967 110.7201 310° West  Level Estimated
06:46AM 25.8625 110.6338 310° West  Level Estimated
06:47AM 25.9282 110.5473 310° West  Level Estimated
06:48AM 25.9939 110.4608 310° West  Level Estimated
06:49AM 26.0595 110.3741 310° West  Level Estimated
06:50AM 26.1251 110.2874 310° West  Level Estimated
06:51AM 26.1906 110.2005 310° West  Level Estimated
06:52AM 26.2561 110.1136 310° West  Level Estimated
06:53AM 26.3215 110.0265 310° West  Level Estimated
06:54AM 26.3868 109.9394 310° West  Level Estimated
06:55AM 26.4521 109.8522 310° West  Level Estimated
06:56AM 26.5174 109.7648 310° West  Level Estimated
06:57AM 26.5826 109.6774 310° West  Level Estimated
06:58AM 26.6478 109.5899 310° West  Level Estimated
06:59AM 26.7129 109.5022 310° West  Level Estimated
07:00AM 26.7779 109.4145 310° West  Level Estimated
07:01AM 26.8429 109.3267 310° West  Level Estimated
07:02AM 26.9078 109.2387 310° West  Level Estimated
07:03AM 26.9727 109.1507 310° West  Level Estimated
07:04AM 27.0375 109.0625 310° West  Level Estimated
07:05AM 27.1023 108.9743 310° West  Level Estimated
07:06AM 27.1670 108.8859 309° West  Level Estimated
07:07AM 27.2317 108.7975 309° West  Level Estimated
07:08AM 27.2963 108.7090 309° West  Level Estimated
07:09AM 27.3608 108.6203 309° West  Level Estimated
07:10AM 27.4253 108.5315 309° West  Level Estimated
07:11AM 27.4897 108.4427 309° West  Level Estimated
07:12AM 27.5541 108.3537 309° West  Level Estimated
07:13AM 27.6184 108.2647 309° West  Level Estimated
07:14AM 27.6827 108.1755 309° West  Level Estimated
07:15AM 27.7469 108.0862 309° West  Level Estimated
07:16AM 27.8111 107.9968 309° West  Level Estimated
07:17AM 27.8752 107.9073 309° West  Level Estimated
07:18AM 27.9392 107.8177 309° West  Level Estimated
07:19AM 28.0032 107.7281 309° West  Level Estimated
07:20AM 28.0671 107.6383 309° West  Level Estimated
07:21AM 28.1309 107.5483 309° West  Level Estimated
07:22AM 28.1947 107.4583 309° West  Level Estimated
07:23AM 28.2585 107.3682 309° West  Level Estimated
07:24AM 28.3222 107.2779 309° West  Level Estimated
07:25AM 28.3858 107.1876 309° West  Level Estimated
07:26AM 28.4494 107.0972 309° West  Level Estimated
07:27AM 28.5129 107.0066 309° West  Level Estimated
07:28AM 28.5763 106.9159 309° West  Level Estimated
07:29AM 28.6397 106.8251 309° West  Level Estimated
07:30AM 28.7030 106.7343 308° West  Level Estimated
07:31AM 28.7663 106.6433 308° West  Level Estimated
07:32AM 28.8295 106.5521 308° West  Level Estimated
07:33AM 28.8926 106.4609 308° West  Level Estimated
07:34AM 28.9557 106.3696 308° West  Level Estimated
07:35AM 29.0187 106.2782 308° West  Level Estimated
07:36AM 29.0817 106.1866 308° West  Level Estimated
07:37AM 29.1446 106.0949 308° West  Level Estimated
07:38AM 29.2074 106.0032 308° West  Level Estimated
07:39AM 29.2702 105.9113 308° West  Level Estimated
07:40AM 29.3329 105.8193 308° West  Level Estimated
07:41AM 29.3955 105.7271 308° West  Level Estimated
07:42AM 29.4581 105.6349 308° West  Level Estimated
07:43AM 29.5206 105.5426 308° West  Level Estimated
07:44AM 29.5830 105.4501 308° West  Level Estimated
07:45AM 29.6454 105.3576 308° West  Level Estimated
07:46AM 29.7078 105.2649 308° West  Level Estimated
07:47AM 29.7700 105.1721 308° West  Level Estimated
07:48AM 29.8322 105.0791 308° West  Level Estimated
07:49AM 29.8943 104.9861 308° West  Level Estimated
07:50AM 29.9564 104.8930 308° West  Level Estimated
07:51AM 30.0184 104.7997 308° West  Level Estimated
07:52AM 30.0803 104.7063 307° West  Level Estimated
07:53AM 30.1422 104.6128 307° West  Level Estimated
07:54AM 30.2040 104.5192 307° West  Level Estimated
07:55AM 30.2657 104.4255 307° West  Level Estimated
07:56AM 30.3274 104.3316 307° West  Level Estimated
07:57AM 30.3890 104.2376 307° West  Level Estimated
07:58AM 30.4505 104.1435 307° West  Level Estimated